Time;durP1;ratioP1;P1;durP2;ratioP2;P2;SDS_P1;SDS_P2;PMS_P1;PMS_P2;Temp;Humidity;BMP_temperature;BMP_pressure;BME280_temperature;BME280_humidity;BME280_pressure;Samples;Min_cycle;Max_cycle;Signal;HPM_P1;HPM_P2
2023/01/02 00:00:08;;;;;;;22.13;10.00;;;;;;;10.25;91.71;100598.59;5022680;28;20040;-82
2023/01/02 00:03:15;;;;;;;16.30;7.57;;;;;;;10.16;91.81;100589.44;5023152;28;20555;-81
2023/01/02 00:06:19;;;;;;;19.33;9.98;;;;;;;10.06;91.97;100579.53;5023258;28;20036;-81
2023/01/02 00:09:24;;;;;;;13.70;8.30;;;;;;;10.02;92.83;100578.84;5011867;28;20092;-82
2023/01/02 00:12:27;;;;;;;15.80;7.57;;;;;;;10.10;91.98;100568.84;5011577;28;20520;-81
2023/01/02 00:15:31;;;;;;;19.02;8.82;;;;;;;10.12;91.54;100572.25;5022983;28;20102;-81
2023/01/02 00:18:34;;;;;;;15.80;7.45;;;;;;;10.21;91.23;100560.47;5022936;28;20071;-80
2023/01/02 00:21:38;;;;;;;18.73;7.78;;;;;;;10.27;90.67;100554.97;5026331;28;20040;-80
2023/01/02 00:24:41;;;;;;;;;;;;;;;9.85;92.07;100563.13;5011045;28;20039;-80
2023/01/02 00:27:44;;;;;;;18.70;7.32;;;;;;;10.05;91.62;100541.25;5022745;28;19960;-80
2023/01/02 00:30:48;;;;;;;11.57;6.47;;;;;;;10.05;91.34;100547.34;5010481;28;20067;-80
2023/01/02 00:33:51;;;;;;;;;;;;;;;10.06;91.64;100554.25;5023633;28;20044;-80
2023/01/02 00:36:54;;;;;;;14.23;6.10;;;;;;;9.88;92.54;100557.75;5022661;28;20011;-81
2023/01/02 00:39:57;;;;;;;;;;;;;;;10.04;91.97;100547.41;5022995;28;20044;-81
2023/01/02 00:43:02;;;;;;;12.05;4.55;;;;;;;10.18;91.05;100556.25;5022694;28;20376;-80
2023/01/02 00:46:06;;;;;;;24.05;10.43;;;;;;;10.14;90.60;100559.09;5022440;28;20117;-81
2023/01/02 00:49:09;;;;;;;30.90;11.50;;;;;;;10.04;90.75;100563.09;5010736;28;20517;-80
2023/01/02 00:52:13;;;;;;;18.00;8.10;;;;;;;9.87;91.35;100562.16;5011200;28;20044;-81
2023/01/02 00:55:16;;;;;;;22.35;8.75;;;;;;;9.91;91.80;100562.84;5022313;28;20525;-81
2023/01/02 00:58:20;;;;;;;22.63;8.32;;;;;;;10.01;90.97;100557.06;5022563;28;20040;-81
2023/01/02 01:01:23;;;;;;;19.02;8.80;;;;;;;9.70;91.19;100557.75;5022319;28;20041;-80
2023/01/02 01:04:26;;;;;;;;;;;;;;;9.88;91.37;100557.75;5022874;28;20052;-80
2023/01/02 01:07:30;;;;;;;19.15;7.95;;;;;;;9.81;91.83;100544.16;5022284;28;19933;-80
2023/01/02 01:10:34;;;;;;;;;;;;;;;9.92;91.10;100546.22;5012817;28;20108;-80
2023/01/02 01:13:37;;;;;;;14.95;6.03;;;;;;;9.93;90.76;100535.72;5016134;28;20483;-80
2023/01/02 01:16:41;;;;;;;10.25;5.63;;;;;;;10.02;90.64;100530.06;5016033;28;20045;-80
2023/01/02 01:19:44;;;;;;;15.27;6.35;;;;;;;10.00;90.66;100542.34;5016850;28;20052;-80
2023/01/02 01:22:48;;;;;;;16.73;5.47;;;;;;;9.95;90.67;100528.63;5004672;28;20049;-80
2023/01/02 01:25:51;;;;;;;;;;;;;;;10.05;90.31;100533.41;5016802;28;20520;-80
2023/01/02 01:28:55;;;;;;;18.77;5.90;;;;;;;10.00;90.37;100531.88;5015990;28;19919;-80
2023/01/02 01:31:58;;;;;;;13.48;5.60;;;;;;;9.76;92.13;100536.56;5015556;28;20781;-80
2023/01/02 01:35:01;;;;;;;11.25;5.10;;;;;;;9.84;91.95;100538.78;5003802;28;20057;-80
2023/01/02 01:38:04;;;;;;;;;;;;;;;10.00;90.38;100536.25;5016512;28;20052;-80
2023/01/02 01:41:13;;;;;;;12.90;4.40;;;;;;;9.93;90.49;100546.19;5016271;28;20435;-80
2023/01/02 01:44:43;;;;;;;14.68;5.03;;;;;;;9.85;91.11;100545.69;5015165;28;20360;-80
2023/01/02 01:47:53;;;;;;;9.95;4.30;;;;;;;9.93;90.88;100538.34;5015534;28;20107;-80
2023/01/02 01:50:57;;;;;;;10.77;4.20;;;;;;;9.97;90.29;100537.25;5015203;28;20048;-78
2023/01/02 01:54:09;;;;;;;12.27;3.78;;;;;;;9.95;90.28;100539.09;5015525;28;20127;-78
2023/01/02 01:57:38;;;;;;;12.43;4.53;;;;;;;9.86;90.50;100542.19;5016019;28;20091;-78
2023/01/02 02:00:42;;;;;;;11.23;4.72;;;;;;;9.88;91.18;100542.09;5015853;28;20103;-80
2023/01/02 02:03:48;;;;;;;8.20;4.20;;;;;;;9.98;90.55;100531.09;5014779;28;20060;-81
2023/01/02 02:06:52;;;;;;;14.45;4.55;;;;;;;9.96;90.54;100539.97;5015088;28;20065;-81
2023/01/02 02:10:02;;;;;;;13.40;4.47;;;;;;;9.74;91.64;100540.16;5014775;28;20077;-81
2023/01/02 02:13:06;;;;;;;8.70;4.15;;;;;;;9.91;91.29;100542.78;5015331;28;20129;-80
2023/01/02 02:16:22;;;;;;;13.02;4.50;;;;;;;9.92;90.94;100544.50;5015594;28;20049;-80
2023/01/02 02:19:44;;;;;;;15.35;4.20;;;;;;;9.96;90.61;100535.56;5015235;28;20049;-80
2023/01/02 02:23:23;;;;;;;12.73;4.03;;;;;;;10.05;90.13;100536.03;5014284;28;20129;-80
2023/01/02 02:26:45;;;;;;;15.48;4.63;;;;;;;10.00;89.96;100536.25;5015159;28;20084;-80
2023/01/02 02:30:15;;;;;;;11.75;3.88;;;;;;;10.02;89.80;100532.66;5015042;28;20148;-80
2023/01/02 02:33:35;;;;;;;10.98;3.47;;;;;;;9.85;90.41;100535.25;5015409;28;20092;-80
2023/01/02 02:36:47;;;;;;;12.25;3.33;;;;;;;9.79;91.06;100532.94;5014777;28;20052;-81
2023/01/02 02:40:21;;;;;;;11.43;4.75;;;;;;;9.54;92.01;100534.13;5014793;28;20088;-81
2023/01/02 02:43:27;;;;;;;;;;;;;;;9.62;91.86;100525.09;5014937;28;20060;-81
2023/01/02 02:46:52;;;;;;;13.20;5.00;;;;;;;9.69;91.35;100521.25;5015043;28;19920;-81
2023/01/02 02:49:58;;;;;;;11.18;4.95;;;;;;;9.75;90.56;100524.41;5014906;28;20073;-81
2023/01/02 02:53:11;;;;;;;10.85;4.57;;;;;;;9.74;89.88;100525.34;5014679;28;20163;-81
2023/01/02 02:56:16;;;;;;;;;;;;;;;9.74;89.84;100519.28;5014385;28;20402;-80
2023/01/02 02:59:22;;;;;;;13.77;4.18;;;;;;;9.81;89.19;100506.75;5013986;28;19921;-80
2023/01/02 03:02:25;;;;;;;14.85;4.63;;;;;;;9.63;90.40;100506.72;5014647;28;20092;-80
2023/01/02 03:05:29;;;;;;;;;;;;;;;9.65;90.04;100504.91;5015150;28;20575;-81
2023/01/02 03:08:50;;;;;;;9.15;4.60;;;;;;;9.60;90.21;100506.88;5014378;28;19920;-81
2023/01/02 03:12:05;;;;;;;13.80;3.58;;;;;;;9.68;90.17;100503.91;5014441;28;20077;-81
2023/01/02 03:15:36;;;;;;;16.83;3.65;;;;;;;9.61;90.49;100512.97;5008493;28;20048;-81
2023/01/02 03:18:41;;;;;;;12.63;3.90;;;;;;;9.61;90.14;100513.81;5014297;28;20456;-81
2023/01/02 03:21:55;;;;;;;9.40;3.30;;;;;;;9.57;90.45;100499.19;5013765;28;20104;-81
2023/01/02 03:24:58;;;;;;;6.25;3.13;;;;;;;9.55;90.26;100504.50;5013813;28;20040;-82
2023/01/02 03:28:05;;;;;;;13.10;4.32;;;;;;;9.46;90.85;100512.75;5013954;28;20049;-82
2023/01/02 03:31:14;;;;;;;14.30;3.70;;;;;;;9.30;92.03;100523.09;5014094;28;20064;-83
2023/01/02 03:34:24;;;;;;;12.02;3.40;;;;;;;9.33;91.81;100519.50;5000808;28;20057;-80
2023/01/02 03:37:31;;;;;;;14.13;3.85;;;;;;;9.39;91.92;100523.59;5013736;28;20417;-80
2023/01/02 03:40:41;;;;;;;11.15;4.20;;;;;;;9.46;90.94;100525.81;5013895;28;20049;-81
2023/01/02 03:43:48;;;;;;;11.85;3.80;;;;;;;9.43;90.86;100525.97;5013732;28;20063;-79
2023/01/02 03:47:07;;;;;;;9.32;3.20;;;;;;;9.17;91.67;100536.78;5013194;28;20044;-79
2023/01/02 03:50:25;;;;;;;11.95;3.13;;;;;;;9.14;92.08;100539.53;5012897;28;20049;-79
2023/01/02 03:53:30;;;;;;;10.60;3.72;;;;;;;9.24;92.00;100532.97;5013380;28;20175;-79
2023/01/02 03:57:01;;;;;;;9.68;3.17;;;;;;;8.95;93.26;100531.69;5013690;28;20040;-81
2023/01/02 04:00:09;;;;;;;13.82;4.05;;;;;;;9.08;92.40;100540.66;5013599;28;20041;-82
2023/01/02 04:03:35;;;;;;;17.48;3.63;;;;;;;9.13;91.65;100543.91;5013801;28;20052;-81
2023/01/02 04:06:45;;;;;;;11.95;3.55;;;;;;;9.01;91.89;100542.69;5013444;28;20084;-80
2023/01/02 04:09:49;;;;;;;10.93;3.40;;;;;;;8.83;92.98;100541.75;5013502;28;20421;-81
2023/01/02 04:12:58;;;;;;;17.55;5.85;;;;;;;8.90;92.96;100547.53;5013331;28;20061;-81
2023/01/02 04:16:03;;;;;;;11.68;3.00;;;;;;;8.99;91.53;100556.72;5012364;28;20069;-81
2023/01/02 04:19:12;;;;;;;12.70;4.32;;;;;;;8.92;92.10;100540.50;5012967;28;20080;-81
2023/01/02 04:22:38;;;;;;;9.40;4.60;;;;;;;8.90;91.74;100541.47;5013177;28;20048;-81
2023/01/02 04:25:51;;;;;;;12.40;5.25;;;;;;;8.96;91.68;100556.84;5013262;28;20048;-81
2023/01/02 04:28:55;;;;;;;;;;;;;;;8.65;93.02;100559.97;5013487;28;20152;-81
2023/01/02 04:32:21;;;;;;;15.93;5.63;;;;;;;8.84;92.53;100553.06;5013100;28;19960;-82
2023/01/02 04:35:25;;;;;;;10.30;3.70;;;;;;;8.94;92.02;100562.16;5013149;28;20049;-81
2023/01/02 04:38:28;;;;;;;10.02;3.17;;;;;;;8.97;91.10;100556.78;5012864;28;20071;-80
2023/01/02 04:41:33;;;;;;;11.98;3.35;;;;;;;8.95;90.57;100561.22;5013072;28;20524;-82
2023/01/02 04:44:36;;;;;;;13.73;3.45;;;;;;;8.74;90.70;100563.03;5012720;28;20515;-82
2023/01/02 04:47:39;;;;;;;13.55;4.38;;;;;;;8.86;90.87;100564.25;5012877;28;20056;-81
2023/01/02 04:50:44;;;;;;;12.10;3.90;;;;;;;8.82;91.27;100560.09;5011285;28;20123;-82
2023/01/02 04:53:51;;;;;;;9.55;2.80;;;;;;;8.82;91.54;100562.69;5011106;28;20073;-80
2023/01/02 04:56:55;;;;;;;15.15;4.10;;;;;;;8.74;92.25;100567.38;5011654;28;20081;-82
2023/01/02 04:59:59;;;;;;;13.00;4.13;;;;;;;8.80;92.07;100561.91;5012329;28;20048;-82
2023/01/02 05:03:02;;;;;;;15.13;3.25;;;;;;;8.54;91.58;100571.69;5012529;28;20096;-81
2023/01/02 05:06:06;;;;;;;9.98;3.17;;;;;;;8.71;91.98;100563.19;5012700;28;20088;-85
2023/01/02 05:09:09;;;;;;;8.63;3.67;;;;;;;8.66;92.66;100559.91;5013336;28;20061;-82
2023/01/02 05:12:13;;;;;;;;;;;;;;;8.71;92.16;100562.31;5012189;28;20044;-81
2023/01/02 05:15:16;;;;;;;27.10;6.27;;;;;;;8.52;93.56;100563.13;5010797;28;20293;-79
2023/01/02 05:18:19;;;;;;;18.38;9.52;;;;;;;8.61;93.50;100565.34;4992700;28;20061;-78
2023/01/02 05:24:44;;;;;;;14.07;7.47;;;;;;;9.11;91.14;100568.38;4990743;28;20007;-80
2023/01/02 05:27:51;;;;;;;18.98;8.35;;;;;;;8.99;91.09;100572.38;4991294;28;20410;-83
2023/01/02 05:30:58;;;;;;;28.58;19.10;;;;;;;8.85;92.32;100575.59;4990313;28;20445;-81
2023/01/02 05:34:02;;;;;;;32.28;19.15;;;;;;;9.03;91.79;100577.38;5004630;28;20053;-81
2023/01/02 05:37:05;;;;;;;34.33;21.38;;;;;;;8.87;92.65;100567.69;5011145;28;20129;-77
2023/01/02 05:40:09;;;;;;;35.92;26.15;;;;;;;9.03;91.64;100574.78;5011495;28;20057;-82
2023/01/02 05:43:55;;;;;;;25.23;13.93;;;;;;;9.11;90.87;100568.38;5008225;28;20560;-84
2023/01/02 05:47:02;;;;;;;17.60;9.15;;;;;;;9.11;90.58;100570.97;4991325;28;20080;-81
2023/01/02 05:50:05;;;;;;;;;;;;;;;9.18;90.17;100562.78;5002403;28;20048;-81
2023/01/02 05:53:11;;;;;;;20.75;11.48;;;;;;;9.14;90.40;100566.47;4965647;28;19920;-81
2023/01/02 05:56:20;;;;;;;9.50;3.40;;;;;;;9.22;89.96;100553.91;5003181;28;20120;-82
2023/01/02 06:03:37;;;;;;;10.07;3.63;;;;;;;9.17;90.60;100565.47;5005997;28;20040;-81
2023/01/02 06:06:40;;;;;;;7.93;2.70;;;;;;;9.15;90.27;100570.75;5006522;28;20192;-81
2023/01/02 06:09:43;;;;;;;12.60;3.53;;;;;;;9.04;91.26;100560.81;5005266;28;20069;-82
2023/01/02 06:12:47;;;;;;;9.25;3.60;;;;;;;9.01;91.77;100571.38;5004531;28;20040;-80
2023/01/02 06:15:50;;;;;;;10.98;4.15;;;;;;;9.12;91.27;100572.66;5004267;28;20416;-80
2023/01/02 06:18:54;;;;;;;12.85;3.92;;;;;;;8.97;92.34;100577.66;4999823;28;20081;-80
2023/01/02 06:21:58;;;;;;;9.68;4.03;;;;;;;8.96;92.40;100588.16;4995976;28;20577;-80
2023/01/02 06:25:01;;;;;;;;;;;;;;;9.01;92.11;100589.63;4982494;28;20049;-80
2023/01/02 06:28:06;;;;;;;11.02;5.72;;;;;;;9.12;91.83;100590.91;4993974;28;19961;-80
2023/01/02 06:31:12;;;;;;;15.95;6.40;;;;;;;9.10;91.66;100590.16;4982273;28;20049;-80
2023/01/02 06:34:16;;;;;;;10.77;5.40;;;;;;;9.08;91.72;100593.66;4994757;28;20070;-80
2023/01/02 06:37:19;;;;;;;13.70;4.50;;;;;;;9.29;90.90;100596.22;4995545;28;20561;-80
2023/01/02 06:40:23;;;;;;;16.30;4.65;;;;;;;9.14;91.23;100591.69;4993837;28;20045;-80
2023/01/02 06:43:28;;;;;;;10.35;4.28;;;;;;;8.80;92.90;100587.97;4987639;28;20517;-80
2023/01/02 06:46:31;;;;;;;13.38;3.35;;;;;;;8.98;93.16;100584.56;5015270;28;20054;-80
2023/01/02 06:49:35;;;;;;;;;;;;;;;9.04;92.49;100580.84;5015469;28;20184;-80
2023/01/02 06:52:38;;;;;;;14.80;3.20;;;;;;;9.08;92.06;100585.84;5014900;28;19936;-80
2023/01/02 06:55:56;;;;;;;9.52;2.63;;;;;;;9.25;91.15;100568.56;5014701;28;20111;-80
2023/01/02 06:59:01;;;;;;;10.68;2.88;;;;;;;9.12;91.70;100565.66;5015026;28;20056;-81
2023/01/02 07:02:05;;;;;;;9.77;3.30;;;;;;;9.05;92.03;100559.88;5002156;28;20076;-81
2023/01/02 07:05:09;;;;;;;22.20;5.90;;;;;;;9.14;91.63;100555.19;5013195;28;20049;-81
2023/01/02 07:08:13;;;;;;;13.40;3.63;;;;;;;9.10;91.44;100564.06;5014890;28;20088;-80
2023/01/02 07:11:20;;;;;;;;;;;;;;;9.16;91.68;100571.63;5015418;28;20127;-81
2023/01/02 07:14:24;;;;;;;13.57;4.32;;;;;;;9.07;91.97;100572.88;5014110;28;19968;-74
2023/01/02 07:17:28;;;;;;;10.27;3.97;;;;;;;9.22;91.02;100568.69;5013116;28;20041;-78
2023/01/02 07:20:31;;;;;;;;;;;;;;;9.26;90.47;100585.94;5013261;28;20123;-78
2023/01/02 07:23:34;;;;;;;14.07;2.67;;;;;;;9.22;90.63;100586.97;5012717;28;20380;-77
2023/01/02 07:26:38;;;;;;;18.70;3.65;;;;;;;9.26;90.23;100586.78;5023853;28;20091;-80
2023/01/02 07:29:48;;;;;;;11.88;3.58;;;;;;;9.30;90.10;100587.47;5012872;28;20501;-80
2023/01/02 07:32:54;;;;;;;;;;;;;;;9.29;90.23;100593.63;5025434;28;20071;-79
2023/01/02 07:36:00;;;;;;;10.95;3.05;;;;;;;9.30;90.24;100587.47;5024481;28;19932;-79
2023/01/02 07:39:04;;;;;;;9.00;3.25;;;;;;;9.16;90.98;100585.50;5022411;28;20437;-81
2023/01/02 07:42:07;;;;;;;12.40;4.28;;;;;;;8.95;92.40;100584.69;5024645;28;20044;-80
2023/01/02 07:45:14;;;;;;;17.65;4.15;;;;;;;9.12;91.95;100590.91;5024573;28;20091;-81
2023/01/02 07:48:19;;;;;;;12.15;4.13;;;;;;;9.17;91.31;100602.00;5024639;28;20053;-80
2023/01/02 07:51:22;;;;;;;;;;;;;;;9.13;91.57;100616.94;5025976;28;20136;-80
2023/01/02 07:54:25;;;;;;;15.13;4.03;;;;;;;9.12;91.92;100623.06;5024114;28;19924;-82
2023/01/02 07:57:30;;;;;;;;;;;;;;;9.35;90.89;100619.44;5023997;28;20045;-82
2023/01/02 08:00:34;;;;;;;18.75;5.55;;;;;;;9.37;90.31;100619.34;5023421;28;19959;-82
2023/01/02 08:03:39;;;;;;;21.35;6.70;;;;;;;9.41;90.29;100626.13;5012095;28;20083;-81
2023/01/02 08:06:43;;;;;;;12.75;4.22;;;;;;;9.64;89.18;100632.91;5024121;28;20032;-82
2023/01/02 08:09:46;;;;;;;15.48;6.50;;;;;;;9.43;90.00;100640.78;5024117;28;20044;-83
2023/01/02 08:12:51;;;;;;;14.90;7.35;;;;;;;9.38;90.03;100637.56;5022796;28;20049;-82
2023/01/02 08:15:54;;;;;;;;;;;;;;;9.49;89.64;100645.72;5022972;28;20373;-82
2023/01/02 08:18:57;;;;;;;21.20;8.85;;;;;;;9.51;89.64;100643.91;5022196;28;19928;-82
2023/01/02 08:22:01;;;;;;;;;;;;;;;9.58;89.52;100638.41;5023526;28;20096;-81
2023/01/02 08:25:05;;;;;;;;;;;;;;;9.52;88.92;100634.31;5024522;28;19939;-81
2023/01/02 08:28:08;;;;;;;19.90;8.68;;;;;;;9.63;88.55;100646.84;5022848;28;19966;-81
2023/01/02 08:31:13;;;;;;;;;;;;;;;9.60;88.65;100652.22;5024067;28;20071;-82
2023/01/02 08:34:17;;;;;;;11.70;6.05;;;;;;;9.45;88.70;100665.06;5023503;28;19968;-82
2023/01/02 08:37:20;;;;;;;17.70;5.82;;;;;;;9.30;90.26;100673.59;5023576;28;20567;-83
2023/01/02 08:40:24;;;;;;;17.67;7.25;;;;;;;9.42;90.05;100670.44;5023274;28;20048;-82
2023/01/02 08:43:28;;;;;;;25.48;7.95;;;;;;;9.52;89.67;100682.13;5018840;28;20056;-82
2023/01/02 08:46:34;;;;;;;16.83;6.55;;;;;;;9.70;88.61;100682.19;5003413;28;20049;-80
2023/01/02 08:49:37;;;;;;;21.77;9.52;;;;;;;9.45;89.81;100687.72;4993963;28;20044;-81
2023/01/02 08:52:40;;;;;;;;;;;;;;;9.65;89.07;100681.59;5002868;28;20137;-82
2023/01/02 08:55:45;;;;;;;14.45;5.22;;;;;;;9.78;88.38;100708.81;5003554;28;19928;-81
2023/01/02 08:58:54;;;;;;;37.53;17.20;;;;;;;9.60;88.93;100704.44;5003779;28;20129;-81
2023/01/02 09:01:57;;;;;;;29.58;10.48;;;;;;;9.69;88.94;100714.47;5003011;28;20097;-82
2023/01/02 09:05:01;;;;;;;21.70;7.72;;;;;;;9.74;88.53;100713.34;5003159;28;20521;-82
2023/01/02 09:08:04;;;;;;;17.50;6.60;;;;;;;9.82;88.51;100709.53;4995275;28;20048;-82
2023/01/02 09:11:13;;;;;;;15.50;5.72;;;;;;;10.00;87.45;100708.69;5003976;28;20091;-81
2023/01/02 09:14:19;;;;;;;18.90;6.18;;;;;;;9.99;87.60;100715.66;5004130;28;20160;-83
2023/01/02 09:17:22;;;;;;;20.80;5.70;;;;;;;10.04;86.80;100709.38;5004083;28;20058;-83
2023/01/02 09:20:26;;;;;;;14.07;5.60;;;;;;;10.21;86.48;100714.63;5003385;28;20116;-82
2023/01/02 09:27:53;;;;;;;18.98;4.82;;;;;;;10.38;86.46;100729.56;5012283;28;20328;-81
2023/01/02 09:30:56;;;;;;;;;;;;;;;10.29;86.99;100725.63;5012708;28;20108;-81
2023/01/02 09:34:01;;;;;;;12.20;4.40;;;;;;;10.46;86.84;100743.09;5016529;28;19920;-81
2023/01/02 09:37:04;;;;;;;19.75;4.82;;;;;;;10.32;87.46;100745.53;5016301;28;20133;-82
2023/01/02 09:40:11;;;;;;;;;;;;;;;10.18;88.75;100754.00;5014280;28;20041;-82
2023/01/02 09:43:20;;;;;;;23.25;5.72;;;;;;;10.22;88.23;100755.53;5004149;28;20349;-81
2023/01/02 09:46:44;;;;;;;18.52;5.03;;;;;;;10.34;88.20;100775.91;5016086;28;20551;-83
2023/01/02 09:49:52;;;;;;;16.48;4.03;;;;;;;10.75;82.68;100770.44;5014324;28;20555;-82
2023/01/02 09:53:00;;;;;;;29.75;5.85;;;;;;;10.98;80.63;100765.88;5016306;28;20052;-83
2023/01/02 09:56:06;;;;;;;22.83;4.35;;;;;;;11.10;81.53;100770.47;5016195;28;20041;-83
2023/01/02 09:59:15;;;;;;;13.65;3.72;;;;;;;11.15;81.57;100776.31;5016270;28;20453;-83
2023/01/02 10:02:46;;;;;;;13.77;5.22;;;;;;;11.08;81.39;100773.16;5016247;28;20180;-83
2023/01/02 10:06:12;;;;;;;17.92;5.72;;;;;;;11.32;76.76;100763.19;5016043;28;20037;-83
2023/01/02 10:09:37;;;;;;;18.42;3.83;;;;;;;11.58;74.95;100768.84;5011105;28;20084;-83
2023/01/02 10:13:07;;;;;;;22.08;11.27;;;;;;;11.58;75.51;100774.09;5003699;28;20053;-84
2023/01/02 10:16:17;;;;;;;30.05;14.50;;;;;;;11.61;75.99;100771.31;5015877;28;20515;-83
2023/01/02 10:19:32;;;;;;;21.17;8.93;;;;;;;11.72;76.30;100779.47;5015898;28;20044;-83
2023/01/02 10:22:41;;;;;;;19.80;10.38;;;;;;;11.77;73.73;100771.34;5015464;28;20073;-82
2023/01/02 10:25:54;;;;;;;17.77;7.72;;;;;;;11.85;72.94;100764.81;5016246;28;20088;-81
2023/01/02 10:29:38;;;;;;;11.82;4.32;;;;;;;12.07;71.67;100761.03;5015615;28;20096;-82
2023/01/02 10:36:25;;;;;;;25.92;3.60;;;;;;;12.25;71.30;100767.91;5176975;23;20037;-78
2023/01/02 10:39:31;;;;;;;29.63;7.07;;;;;;;12.31;71.16;100764.06;4947921;29;20597;-76
2023/01/02 10:42:35;;;;;;;17.90;3.35;;;;;;;12.18;71.51;100769.13;4956645;29;20086;-79
2023/01/02 10:45:39;;;;;;;21.15;4.13;;;;;;;12.25;71.76;100762.66;4956424;29;20046;-75
2023/01/02 10:48:43;;;;;;;20.88;3.72;;;;;;;12.23;71.88;100759.25;4938712;29;20047;-78
2023/01/02 10:52:02;;;;;;;11.55;3.13;;;;;;;12.25;71.99;100761.78;4956347;29;20054;-81
2023/01/02 10:55:10;;;;;;;20.08;6.38;;;;;;;12.34;71.81;100749.00;4944223;29;20086;-79
2023/01/02 10:58:21;;;;;;;19.55;6.18;;;;;;;12.28;71.58;100756.38;4966588;28;20097;-80
2023/01/02 11:01:24;;;;;;;12.77;4.97;;;;;;;12.32;71.96;100750.88;4969562;28;20081;-75
2023/01/02 11:04:31;;;;;;;11.35;3.60;;;;;;;12.35;71.93;100765.59;4973793;28;20049;-78
2023/01/02 11:07:37;;;;;;;15.52;5.75;;;;;;;12.44;71.06;100758.97;4963009;28;20122;-75
2023/01/02 11:10:50;;;;;;;12.55;4.00;;;;;;;12.44;71.17;100762.44;4968681;28;20520;-74
2023/01/02 11:14:05;;;;;;;14.20;3.40;;;;;;;12.39;71.44;100759.25;4969002;28;20080;-74
2023/01/02 11:17:14;;;;;;;20.20;4.55;;;;;;;12.45;71.22;100761.53;4963633;28;20679;-80
2023/01/02 11:20:22;;;;;;;12.90;4.63;;;;;;;12.41;71.42;100764.41;4957687;28;20199;-77
2023/01/02 11:23:28;;;;;;;10.68;3.70;;;;;;;12.45;71.66;100765.94;4952371;28;20454;-87
2023/01/02 11:26:41;;;;;;;12.95;2.88;;;;;;;12.38;72.02;100775.06;4959960;28;20042;-79
2023/01/02 11:29:47;;;;;;;12.15;2.88;;;;;;;12.33;72.23;100775.31;4970508;28;20097;-80
2023/01/02 11:33:04;;;;;;;13.02;3.53;;;;;;;12.30;72.70;100786.81;4970561;28;20194;-81
2023/01/02 11:36:10;;;;;;;9.75;3.53;;;;;;;12.29;72.74;100769.41;4970258;28;20097;-85
2023/01/02 11:39:40;;;;;;;14.82;4.10;;;;;;;12.29;72.87;100785.13;4945620;28;20150;-84
2023/01/02 11:46:49;;;;;;;9.77;2.90;;;;;;;12.25;74.04;100791.50;4949894;28;20434;-81
2023/01/02 11:50:00;;;;;;;12.20;2.63;;;;;;;12.18;74.39;100782.25;4957143;28;20070;-83
2023/01/02 11:53:06;;;;;;;10.95;2.60;;;;;;;12.23;74.84;100780.22;4947914;28;20045;-83
2023/01/02 11:56:20;;;;;;;13.75;2.67;;;;;;;12.24;75.05;100781.91;4944100;28;20047;-79
2023/01/02 11:59:35;;;;;;;12.18;3.67;;;;;;;12.31;75.63;100783.25;4951141;28;20066;-86
2023/01/02 12:02:42;;;;;;;14.30;3.13;;;;;;;12.19;76.02;100776.09;4950382;28;20094;-90
2023/01/02 12:05:57;;;;;;;12.48;2.20;;;;;;;12.25;75.72;100788.00;4950379;28;20528;-89
2023/01/02 12:09:21;;;;;;;15.15;3.72;;;;;;;12.18;76.81;100791.88;4935057;28;20057;-86
2023/01/02 12:12:41;;;;;;;9.48;3.40;;;;;;;12.09;77.54;100796.72;4948493;28;20062;-92
2023/01/02 12:16:00;;;;;;;12.48;2.58;;;;;;;12.08;77.06;100800.25;4954764;28;20110;-84
2023/01/02 12:19:41;;;;;;;10.18;4.90;;;;;;;12.19;76.68;100804.06;4938773;28;20164;-86
2023/01/02 12:23:10;;;;;;;23.33;9.05;;;;;;;12.17;76.52;100812.03;4967469;28;20069;-80
2023/01/02 12:26:24;;;;;;;58.88;25.10;;;;;;;12.18;77.14;100810.25;4959265;28;20452;-75
2023/01/02 12:29:34;;;;;;;44.78;19.05;;;;;;;12.27;77.06;100817.59;4946003;28;20049;-78
2023/01/02 12:32:49;;;;;;;25.73;11.25;;;;;;;12.40;76.05;100817.78;4968829;28;20532;-79
2023/01/02 12:35:58;;;;;;;30.90;12.95;;;;;;;12.18;76.30;100824.19;4956680;28;20741;-78
2023/01/02 12:39:48;;;;;;;19.30;9.95;;;;;;;12.21;76.73;100824.03;4958498;28;20604;-77
2023/01/02 12:43:31;;;;;;;35.67;18.55;;;;;;;12.18;76.95;100826.81;4948425;28;20104;-74
2023/01/02 12:46:54;;;;;;;30.13;15.80;;;;;;;12.17;76.85;100835.63;4969329;28;20098;-74
2023/01/02 12:50:34;;;;;;;15.10;4.50;;;;;;;12.32;77.53;100852.31;4954896;28;20556;-74
2023/01/02 12:54:12;;;;;;;16.75;6.32;;;;;;;12.40;76.53;100846.63;4949752;28;20154;-73
2023/01/02 12:57:22;;;;;;;17.73;6.15;;;;;;;12.33;76.79;100859.22;4948722;28;20054;-74
2023/01/02 13:00:44;;;;;;;46.67;25.08;;;;;;;12.38;76.85;100851.09;4948721;28;20058;-73
2023/01/02 13:04:27;;;;;;;28.23;16.90;;;;;;;12.26;76.15;100853.47;4949103;28;20105;-73
2023/01/02 13:07:42;;;;;;;17.98;8.98;;;;;;;12.19;76.50;100856.50;4934931;28;20046;-73
2023/01/02 13:10:47;;;;;;;11.20;2.70;;;;;;;12.13;77.96;100868.19;4945670;28;20073;-74
2023/01/02 13:13:52;;;;;;;10.65;5.20;;;;;;;11.76;82.23;100870.06;4928212;29;20098;-73
2023/01/02 13:17:26;;;;;;;8.23;2.40;;;;;;;11.95;81.11;100863.91;4929214;29;20098;-73
2023/01/02 13:21:06;;;;;;;11.63;3.00;;;;;;;11.90;82.17;100866.78;4940458;28;20424;-72
2023/01/02 13:24:38;;;;;;;6.22;1.63;;;;;;;12.01;83.25;100874.06;4949117;28;20710;-76
2023/01/02 13:27:54;;;;;;;10.55;2.25;;;;;;;11.97;84.95;100873.38;4935444;28;20120;-77
2023/01/02 13:31:10;;;;;;;7.97;2.00;;;;;;;11.94;86.23;100878.78;4929870;29;20047;-76
2023/01/02 13:34:15;;;;;;;10.35;4.20;;;;;;;11.84;86.52;100873.19;4939757;28;20045;-76
2023/01/02 13:37:26;;;;;;;9.02;5.10;;;;;;;11.69;87.28;100873.09;4930183;29;20062;-75
2023/01/02 13:40:32;;;;;;;11.70;2.88;;;;;;;11.76;86.97;100891.00;4940560;28;20177;-75
2023/01/02 13:43:38;;;;;;;30.42;20.33;;;;;;;11.74;87.42;100895.50;4937895;29;20075;-75
2023/01/02 13:46:41;;;;;;;31.02;20.48;;;;;;;11.76;85.03;100887.56;4950644;28;20050;-82
2023/01/02 13:50:00;;;;;;;33.28;21.55;;;;;;;11.50;80.99;100889.72;4956658;28;20054;-80
2023/01/02 13:53:06;;;;;;;18.70;13.43;;;;;;;11.56;81.33;100891.19;4949185;28;20402;-86
2023/01/02 14:01:21;;;;;;;15.77;8.82;;;;;;;11.31;78.50;100905.50;4863367;29;20358;-83
2023/01/02 14:04:30;;;;;;;8.88;4.93;;;;;;;11.29;79.36;100902.09;4894375;29;20044;-83
2023/01/02 14:07:42;;;;;;;14.20;7.57;;;;;;;11.33;78.50;100908.06;4893531;29;20063;-82
2023/01/02 14:10:50;;;;;;;16.25;11.18;;;;;;;11.35;78.83;100912.28;4893585;29;20095;-82
2023/01/02 14:13:54;;;;;;;24.83;15.30;;;;;;;11.39;78.53;100926.06;4890115;29;20555;-82
2023/01/02 14:17:08;;;;;;;21.17;10.43;;;;;;;11.15;77.91;100931.56;4875905;29;20057;-82
2023/01/02 14:20:17;;;;;;;;;;;;;;;11.21;78.29;100937.44;4896472;29;20091;-83
2023/01/02 14:23:40;;;;;;;29.20;17.48;;;;;;;11.43;77.82;100929.41;4914085;29;19965;-88
2023/01/02 14:26:54;;;;;;;18.10;13.20;;;;;;;11.30;78.62;100945.69;4965928;28;20046;-83
2023/01/02 14:30:07;;;;;;;22.35;13.77;;;;;;;11.18;80.23;100951.53;4969122;28;20049;-84
2023/01/02 14:33:21;;;;;;;18.30;11.07;;;;;;;11.43;80.40;100960.81;4968145;28;20069;-87
2023/01/02 14:36:44;;;;;;;9.02;5.10;;;;;;;11.49;82.20;100971.84;4975808;28;20057;-84
2023/01/02 14:39:47;;;;;;;5.78;2.80;;;;;;;11.50;83.46;100975.31;4969787;28;20063;-81
2023/01/02 14:46:31;;;;;;;8.40;1.88;;;;;;;11.56;83.96;100975.00;4956017;29;20054;-83
2023/01/02 14:49:35;;;;;;;6.10;2.65;;;;;;;11.36;86.67;100992.53;4956580;29;20553;-83
2023/01/02 14:52:42;;;;;;;5.55;1.45;;;;;;;11.37;87.11;100986.38;4955636;28;20133;-83
2023/01/02 14:55:53;;;;;;;6.47;1.85;;;;;;;11.17;88.95;100978.63;4956411;29;20135;-82
2023/01/02 14:58:58;;;;;;;7.13;1.85;;;;;;;11.22;88.80;100975.78;4956177;29;20046;-82
2023/01/02 15:02:16;;;;;;;6.07;1.40;;;;;;;11.22;89.04;100984.47;4955723;29;20049;-82
2023/01/02 15:05:35;;;;;;;4.10;1.40;;;;;;;11.20;89.50;100982.84;4956361;29;20058;-82
2023/01/02 15:08:48;;;;;;;4.50;1.48;;;;;;;11.18;89.57;100993.41;4955594;29;20078;-82
2023/01/02 15:19:41;;;;;;;22.63;12.85;;;;;;;10.91;92.15;101032.16;4955861;29;20057;-83
2023/01/02 15:22:50;;;;;;;36.55;21.80;;;;;;;10.97;91.72;101036.25;4955540;29;20545;-82